Airport Name : Gorna Oryahovitsa

Other Name : Gorna

ICAO : LBGO

IATA : GOZ

FAA :

Latitude : 43.151444

Longitude : 25.712889

Country : Bulgaria

Local Date and Time : 20 Sep 2020 00:45

 

TAF (Terminal Aerodrome Forecast)

TAF LBGO 191700Z 1918/2018 VRB04KT CAVOK BECMG 2008/2010 10008KT

 

METAR (METeorological Aerodrome Report)

LBGO 192130Z AUTO 00000KT 9999 NCD 08/06 Q1022

LBGO 192100Z AUTO 16002KT 9999 NCD 08/05 Q1022

LBGO 192030Z AUTO 00000KT 9999 NCD 09/06 Q1022

LBGO 192000Z AUTO 00000KT 9999 NCD 10/06 Q1021

LBGO 191930Z AUTO 00000KT 9999 NCD 11/07 Q1021

LBGO 191900Z AUTO VRB02KT 9999 NCD 11/06 Q1021

LBGO 191830Z AUTO 14004KT 100V160 9999 NCD 13/06 Q1021

LBGO 191800Z AUTO 15003KT 120V190 9999 NCD 14/07 Q1021

To Charter a Jet Click here.